Time;durP1;ratioP1;P1;durP2;ratioP2;P2;SDS_P1;SDS_P2;PMS_P1;PMS_P2;Temp;Humidity;BMP_temperature;BMP_pressure;BME280_temperature;BME280_humidity;BME280_pressure;Samples;Min_cycle;Max_cycle;Signal;HPM_P1;HPM_P2
2023/03/24 00:01:53;;;;;;;11.18;5.10;;;11.70;99.90;;;;;;4986251;28;20778;-76
2023/03/24 00:04:20;;;;;;;10.65;4.60;;;11.70;99.90;;;;;;4967926;28;20466;-75
2023/03/24 00:06:48;;;;;;;10.43;4.78;;;11.60;99.90;;;;;;4985796;28;20418;-77
2023/03/24 00:09:15;;;;;;;12.20;5.63;;;11.80;99.90;;;;;;4979003;28;20430;-76
2023/03/24 00:11:40;;;;;;;10.98;4.75;;;11.70;99.90;;;;;;4986865;28;20441;-77
2023/03/24 00:14:06;;;;;;;13.65;5.05;;;11.70;99.90;;;;;;4984725;28;20430;-78
2023/03/24 00:16:33;;;;;;;10.77;5.20;;;11.70;99.90;;;;;;4981237;28;20470;-75
2023/03/24 00:19:00;;;;;;;9.55;5.25;;;11.60;99.90;;;;;;4984020;28;20830;-77
2023/03/24 00:21:25;;;;;;;9.43;5.20;;;11.70;99.90;;;;;;4971763;28;20443;-77
2023/03/24 00:23:57;;;;;;;10.95;4.90;;;11.70;99.90;;;;;;4985699;28;20480;-76
2023/03/24 00:26:24;;;;;;;9.43;4.80;;;11.60;99.90;;;;;;4997084;28;20475;-77
2023/03/24 00:28:50;;;;;;;12.10;5.10;;;11.70;99.90;;;;;;4968394;28;20424;-75
2023/03/24 00:31:17;;;;;;;11.15;4.80;;;11.60;99.90;;;;;;4993523;28;20432;-77
2023/03/24 00:33:49;;;;;;;7.07;4.57;;;11.60;99.90;;;;;;4959922;28;20438;-76
2023/03/24 00:36:15;;;;;;;10.27;5.43;;;11.70;99.90;;;;;;4985099;28;20936;-76
2023/03/24 00:38:41;;;;;;;10.45;4.93;;;11.60;99.90;;;;;;4986783;28;20433;-76
2023/03/24 00:41:09;;;;;;;10.68;5.18;;;11.60;99.90;;;;;;4983417;28;20438;-76
2023/03/24 00:43:35;;;;;;;9.35;5.68;;;11.70;99.90;;;;;;4987723;28;20529;-75
2023/03/24 00:46:04;;;;;;;9.32;5.20;;;11.60;99.90;;;;;;5003149;28;20437;-77
2023/03/24 00:48:31;;;;;;;9.93;4.47;;;11.60;99.90;;;;;;4989296;28;20447;-78
2023/03/24 00:50:56;;;;;;;9.88;4.85;;;11.60;99.90;;;;;;4983126;28;20426;-77
2023/03/24 00:53:24;;;;;;;9.13;4.57;;;11.60;99.90;;;;;;4989843;28;20438;-75
2023/03/24 00:55:50;;;;;;;9.88;4.63;;;11.70;99.90;;;;;;5021901;28;20437;-76
2023/03/24 00:58:18;;;;;;;8.90;4.30;;;11.60;99.90;;;;;;5002852;28;20438;-79
2023/03/24 01:00:46;;;;;;;10.43;4.68;;;11.70;99.90;;;;;;4983418;28;20448;-75
2023/03/24 01:03:12;;;;;;;12.52;5.13;;;11.60;99.90;;;;;;4987821;28;20426;-78
2023/03/24 01:05:38;;;;;;;7.88;4.25;;;11.60;99.90;;;;;;4992641;28;20453;-75
2023/03/24 01:08:05;;;;;;;9.70;4.53;;;11.70;99.90;;;;;;4995117;28;20734;-77
2023/03/24 01:10:33;;;;;;;8.15;4.35;;;11.70;99.90;;;;;;4974338;28;20438;-77
2023/03/24 01:13:01;;;;;;;8.82;4.25;;;11.60;99.90;;;;;;4981524;28;20472;-76
2023/03/24 01:15:32;;;;;;;7.18;4.57;;;11.60;99.90;;;;;;4988925;28;20540;-77
2023/03/24 01:18:01;;;;;;;8.57;3.63;;;11.60;99.90;;;;;;4990464;28;20493;-77
2023/03/24 01:20:31;;;;;;;10.13;4.57;;;11.80;99.90;;;;;;5012711;28;20446;-76
2023/03/24 01:23:03;;;;;;;10.23;4.22;;;11.70;99.90;;;;;;4986444;28;20434;-76
2023/03/24 01:25:30;;;;;;;7.10;3.55;;;11.70;99.90;;;;;;4991219;28;21122;-76
2023/03/24 01:27:56;;;;;;;8.95;4.70;;;11.60;99.90;;;;;;4985999;28;20802;-78
2023/03/24 01:30:25;;;;;;;6.80;4.18;;;11.70;99.90;;;;;;4984277;28;20426;-76
2023/03/24 01:32:52;;;;;;;7.22;4.45;;;11.70;99.90;;;;;;5017838;28;20430;-77
2023/03/24 01:35:19;;;;;;;7.32;4.38;;;11.60;99.90;;;;;;4991460;28;20751;-77
2023/03/24 01:37:45;;;;;;;7.47;4.05;;;11.60;99.90;;;;;;4979906;28;20439;-77
2023/03/24 01:40:17;;;;;;;9.05;4.50;;;11.60;99.90;;;;;;4973852;28;21035;-77
2023/03/24 01:42:43;;;;;;;6.80;4.20;;;11.70;99.90;;;;;;4980747;28;20457;-78
2023/03/24 01:45:41;;;;;;;8.52;3.95;;;11.70;99.90;;;;;;4989147;28;20833;-76
2023/03/24 01:48:34;;;;;;;9.88;5.00;;;11.70;99.90;;;;;;4995348;28;20477;-80
2023/03/24 01:51:33;;;;;;;6.95;3.85;;;11.70;99.90;;;;;;4983894;28;20708;-75
2023/03/24 01:54:04;;;;;;;7.65;3.95;;;11.70;99.90;;;;;;5009139;28;20473;-76
2023/03/24 01:56:33;;;;;;;7.22;3.90;;;11.70;99.90;;;;;;4990292;28;20422;-77
2023/03/24 01:59:04;;;;;;;6.57;4.10;;;11.80;99.90;;;;;;4987269;28;20827;-78
2023/03/24 02:01:30;;;;;;;5.90;4.63;;;11.70;99.90;;;;;;4974182;28;20435;-77
2023/03/24 02:03:58;;;;;;;8.77;4.30;;;11.80;99.90;;;;;;4987050;28;20436;-76
2023/03/24 02:06:25;;;;;;;7.70;4.05;;;11.70;99.90;;;;;;4990718;28;20774;-76
2023/03/24 02:08:58;;;;;;;7.57;4.25;;;11.70;99.90;;;;;;4984827;28;20553;-76
2023/03/24 02:11:30;;;;;;;5.57;4.07;;;11.70;99.90;;;;;;5062763;22;20444;-68
2023/03/24 02:13:56;;;;;;;9.40;3.87;;;11.70;99.90;;;;;;4969680;28;20440;-69
2023/03/24 02:16:46;;;;;;;6.88;4.25;;;11.80;99.90;;;;;;4972716;28;20512;-68
2023/03/24 02:19:49;;;;;;;9.07;4.17;;;11.70;99.90;;;;;;4969953;28;20440;-69
2023/03/24 02:22:38;;;;;;;7.90;3.80;;;11.70;99.90;;;;;;4979731;28;20434;-68
2023/03/24 02:25:20;;;;;;;9.20;5.10;;;11.80;99.90;;;;;;4971659;28;20515;-68
2023/03/24 02:28:08;;;;;;;6.20;4.25;;;11.80;99.90;;;;;;4967945;28;20435;-67
2023/03/24 02:30:52;;;;;;;7.80;4.32;;;11.80;99.90;;;;;;4968767;28;20476;-71
2023/03/24 02:33:35;;;;;;;8.35;4.07;;;11.80;99.90;;;;;;4981632;28;20439;-68
2023/03/24 02:36:07;;;;;;;8.88;4.13;;;11.80;99.90;;;;;;4976293;28;20845;-67
2023/03/24 02:38:52;;;;;;;6.50;4.43;;;11.90;99.90;;;;;;4966616;28;20799;-68
2023/03/24 02:41:36;;;;;;;5.28;3.88;;;11.80;99.90;;;;;;4969943;28;20440;-69
2023/03/24 02:44:21;;;;;;;8.40;4.60;;;11.80;99.90;;;;;;4976811;28;20491;-68
2023/03/24 02:47:05;;;;;;;7.03;4.03;;;11.90;99.90;;;;;;4968817;28;20440;-68
2023/03/24 02:49:36;;;;;;;5.68;4.18;;;11.90;99.90;;;;;;4982723;28;20438;-69
2023/03/24 02:52:28;;;;;;;7.35;3.95;;;11.90;99.90;;;;;;4979906;28;20440;-68
2023/03/24 02:55:36;;;;;;;4.60;3.67;;;11.90;99.90;;;;;;4975141;28;20458;-70
2023/03/24 02:58:13;;;;;;;6.47;3.55;;;11.80;99.90;;;;;;4938175;29;20421;-68
2023/03/24 03:01:02;;;;;;;11.00;5.68;;;11.90;99.90;;;;;;4957923;28;21035;-67
2023/03/24 03:03:37;;;;;;;6.27;4.30;;;11.80;99.90;;;;;;4962306;28;20498;-68
2023/03/24 03:06:14;;;;;;;7.35;4.53;;;11.80;99.90;;;;;;4968799;28;20436;-68
2023/03/24 03:08:41;;;;;;;5.97;4.43;;;11.80;99.90;;;;;;4975759;28;20976;-68
2023/03/24 03:11:12;;;;;;;4.87;3.57;;;11.80;99.90;;;;;;4974255;28;20434;-69
2023/03/24 03:13:42;;;;;;;5.45;4.03;;;11.90;99.90;;;;;;4973194;28;20451;-68
2023/03/24 03:16:15;;;;;;;5.40;2.80;;;11.90;99.90;;;;;;4976550;28;21005;-69
2023/03/24 03:18:48;;;;;;;5.97;2.73;;;11.60;99.90;;;;;;4979398;28;20466;-68
2023/03/24 03:21:16;;;;;;;4.00;2.57;;;11.70;99.90;;;;;;4972963;28;20885;-68
2023/03/24 03:23:58;;;;;;;5.32;2.63;;;11.50;99.90;;;;;;4980163;28;20436;-69
2023/03/24 03:26:27;;;;;;;5.60;2.58;;;11.40;99.90;;;;;;4984060;28;20424;-68
2023/03/24 03:28:59;;;;;;;6.32;2.85;;;11.40;99.90;;;;;;4983166;28;20452;-67
2023/03/24 03:31:32;;;;;;;6.10;3.37;;;11.30;99.90;;;;;;4967840;28;20795;-69
2023/03/24 03:34:36;;;;;;;6.82;2.75;;;11.20;99.90;;;;;;4971678;28;20449;-69
2023/03/24 03:37:26;;;;;;;7.47;2.85;;;11.20;99.90;;;;;;4959852;28;20438;-68
2023/03/24 03:39:58;;;;;;;5.80;2.60;;;11.10;99.90;;;;;;4969686;28;20473;-68
2023/03/24 03:42:24;;;;;;;7.13;2.40;;;11.00;99.90;;;;;;4987160;28;21595;-69
2023/03/24 03:44:50;;;;;;;9.25;2.60;;;11.00;99.90;;;;;;4979042;28;20768;-68
2023/03/24 03:47:17;;;;;;;7.65;2.15;;;10.90;99.90;;;;;;4967754;28;20487;-69
2023/03/24 03:49:44;;;;;;;7.57;2.77;;;10.90;99.90;;;;;;4971293;28;20842;-68
2023/03/24 03:52:11;;;;;;;7.72;2.25;;;10.80;99.90;;;;;;4968936;28;20419;-69
2023/03/24 03:54:38;;;;;;;8.50;2.50;;;10.80;99.90;;;;;;4976136;28;20439;-68
2023/03/24 03:57:03;;;;;;;7.68;1.95;;;10.70;99.90;;;;;;4987142;28;20438;-70
2023/03/24 03:59:36;;;;;;;6.57;1.80;;;10.60;99.90;;;;;;4976246;28;20802;-69
2023/03/24 04:02:26;;;;;;;9.68;2.30;;;10.60;99.90;;;;;;4969250;28;20423;-69
2023/03/24 04:05:14;;;;;;;5.43;2.20;;;10.60;99.90;;;;;;4976520;28;20855;-68
2023/03/24 04:08:11;;;;;;;9.90;2.08;;;10.50;99.90;;;;;;4987234;28;20422;-68
2023/03/24 04:10:46;;;;;;;8.45;1.88;;;10.40;99.90;;;;;;4972380;28;20428;-68
2023/03/24 04:13:20;;;;;;;9.80;2.20;;;10.40;99.90;;;;;;4968198;28;20428;-68
2023/03/24 04:15:57;;;;;;;9.30;2.30;;;10.30;99.90;;;;;;4986423;28;20768;-71
2023/03/24 04:18:34;;;;;;;9.27;2.47;;;10.30;99.90;;;;;;4988796;28;20413;-69
2023/03/24 04:21:16;;;;;;;10.68;2.70;;;10.20;99.90;;;;;;4988257;28;20461;-68
2023/03/24 04:23:53;;;;;;;7.82;2.78;;;10.20;99.90;;;;;;4990849;28;21467;-68
2023/03/24 04:26:54;;;;;;;7.85;2.10;;;10.20;99.90;;;;;;4973071;28;20523;-68
2023/03/24 04:29:41;;;;;;;9.52;2.25;;;10.00;99.90;;;;;;4970215;28;20490;-68
2023/03/24 04:32:24;;;;;;;11.27;3.20;;;10.00;99.90;;;;;;4982668;28;20506;-68
2023/03/24 04:35:00;;;;;;;11.85;2.53;;;9.90;99.90;;;;;;4981103;28;20513;-69
2023/03/24 04:37:31;;;;;;;8.32;2.45;;;9.90;99.90;;;;;;4990380;28;20418;-67
2023/03/24 04:40:00;;;;;;;8.87;2.50;;;9.80;99.90;;;;;;4989042;28;20444;-68
2023/03/24 04:42:48;;;;;;;11.75;2.65;;;9.70;99.90;;;;;;4985286;28;20427;-70
2023/03/24 04:45:15;;;;;;;12.63;2.78;;;9.70;99.90;;;;;;4980242;28;20942;-68
2023/03/24 04:47:49;;;;;;;14.35;3.45;;;9.70;99.90;;;;;;4972280;28;20974;-69
2023/03/24 04:50:35;;;;;;;9.00;2.47;;;9.70;99.90;;;;;;4963756;28;20484;-68
2023/03/24 04:53:02;;;;;;;10.30;2.37;;;9.70;99.90;;;;;;4991402;28;20422;-70
2023/03/24 04:56:05;;;;;;;11.07;2.50;;;9.70;99.90;;;;;;4988603;28;20437;-67
2023/03/24 04:58:31;;;;;;;11.80;2.65;;;9.70;99.90;;;;;;4975119;28;20511;-68
2023/03/24 05:00:57;;;;;;;12.70;3.35;;;9.70;99.90;;;;;;4969944;28;20855;-69
2023/03/24 05:03:24;;;;;;;14.93;3.45;;;9.70;99.90;;;;;;4973672;28;20423;-69
2023/03/24 05:05:51;;;;;;;13.30;3.05;;;9.70;99.90;;;;;;4990220;28;20774;-69
2023/03/24 05:08:18;;;;;;;12.32;2.63;;;9.70;99.90;;;;;;4991370;28;20410;-69
2023/03/24 05:10:45;;;;;;;11.50;3.38;;;9.80;99.90;;;;;;4979207;28;20439;-67
2023/03/24 05:13:11;;;;;;;16.50;3.97;;;9.70;99.90;;;;;;4971678;28;20982;-68
2023/03/24 05:15:38;;;;;;;13.13;3.83;;;9.80;99.90;;;;;;4986990;28;20497;-69
2023/03/24 05:18:04;;;;;;;17.20;4.63;;;9.70;99.90;;;;;;4984585;28;20423;-71
2023/03/24 05:20:30;;;;;;;14.90;3.90;;;9.80;99.90;;;;;;4990635;28;20566;-67
2023/03/24 05:22:56;;;;;;;18.05;4.10;;;9.80;99.90;;;;;;4991399;28;20407;-68
2023/03/24 05:25:22;;;;;;;14.23;4.35;;;9.70;99.90;;;;;;4978289;28;20444;-68
2023/03/24 05:27:48;;;;;;;19.88;8.52;;;9.60;99.90;;;;;;4969798;28;20523;-68
2023/03/24 05:30:15;;;;;;;21.05;5.35;;;9.60;99.90;;;;;;4977872;28;20436;-70
2023/03/24 05:32:40;;;;;;;16.83;4.68;;;9.50;99.90;;;;;;4984830;28;20432;-68
2023/03/24 05:35:07;;;;;;;14.38;3.28;;;9.50;99.90;;;;;;4981615;28;20437;-70
2023/03/24 05:37:33;;;;;;;17.17;3.58;;;9.40;99.90;;;;;;4971289;28;20420;-68
2023/03/24 05:39:59;;;;;;;16.42;4.68;;;9.50;99.90;;;;;;4970353;28;20479;-67
2023/03/24 05:42:25;;;;;;;16.52;3.65;;;9.40;99.90;;;;;;4971096;28;20428;-69
2023/03/24 05:44:50;;;;;;;18.05;3.67;;;9.40;99.90;;;;;;4979959;28;20821;-69
2023/03/24 05:47:18;;;;;;;17.80;4.70;;;9.50;99.90;;;;;;4983099;28;20436;-69
2023/03/24 05:49:45;;;;;;;16.95;4.15;;;9.40;99.90;;;;;;4971182;28;20519;-69
2023/03/24 05:52:13;;;;;;;11.32;3.28;;;9.50;99.90;;;;;;4978638;28;20793;-68
2023/03/24 05:54:39;;;;;;;14.15;3.08;;;9.40;99.90;;;;;;4978514;28;20422;-68
2023/03/24 05:57:09;;;;;;;12.37;3.33;;;9.40;99.90;;;;;;4987634;28;20762;-70
2023/03/24 05:59:36;;;;;;;11.43;3.30;;;9.40;99.90;;;;;;4982673;28;20440;-68
2023/03/24 06:02:03;;;;;;;12.10;3.33;;;9.40;99.90;;;;;;4975430;28;20440;-68
2023/03/24 06:04:29;;;;;;;14.73;3.30;;;9.30;99.90;;;;;;4971420;28;20922;-69
2023/03/24 06:06:58;;;;;;;13.95;4.18;;;9.40;99.90;;;;;;4975576;28;20432;-69
2023/03/24 06:09:31;;;;;;;13.77;3.85;;;9.40;99.90;;;;;;4969710;28;21018;-69
2023/03/24 06:12:01;;;;;;;15.13;4.60;;;9.40;99.90;;;;;;4978661;28;20430;-69
2023/03/24 06:14:28;;;;;;;12.73;3.58;;;9.40;99.90;;;;;;4988046;28;20481;-69
2023/03/24 06:16:58;;;;;;;11.90;3.20;;;9.40;99.90;;;;;;4982946;28;20436;-69
2023/03/24 06:19:24;;;;;;;13.38;3.40;;;9.40;99.90;;;;;;4968808;28;20991;-69
2023/03/24 06:21:53;;;;;;;14.07;3.83;;;9.50;99.90;;;;;;4968161;28;20424;-68
2023/03/24 06:24:20;;;;;;;13.38;3.33;;;9.50;99.90;;;;;;4965038;28;20780;-69
2023/03/24 06:26:48;;;;;;;14.13;3.35;;;9.50;99.90;;;;;;4938805;28;20487;-69
2023/03/24 06:29:18;;;;;;;19.08;5.43;;;9.50;99.90;;;;;;4982725;28;20518;-68
2023/03/24 06:31:45;;;;;;;12.27;3.40;;;9.50;99.90;;;;;;4982671;28;20789;-71
2023/03/24 06:34:11;;;;;;;19.27;3.78;;;9.60;99.90;;;;;;4989390;28;20449;-68
2023/03/24 06:36:37;;;;;;;17.42;4.32;;;9.60;99.90;;;;;;4976306;28;20432;-68
2023/03/24 06:39:04;;;;;;;16.40;3.13;;;9.60;99.90;;;;;;4970254;28;20512;-69
2023/03/24 06:41:30;;;;;;;17.67;4.47;;;9.60;99.90;;;;;;4981772;28;20437;-67
2023/03/24 06:43:56;;;;;;;20.43;4.40;;;9.60;99.90;;;;;;4986879;28;20422;-68
2023/03/24 06:46:22;;;;;;;20.03;5.87;;;9.70;99.90;;;;;;4964558;28;20450;-69
2023/03/24 06:48:48;;;;;;;23.75;5.00;;;9.70;99.90;;;;;;4999650;28;20435;-68
2023/03/24 06:51:14;;;;;;;21.92;4.88;;;9.60;99.90;;;;;;4976177;28;20440;-71
2023/03/24 06:53:40;;;;;;;19.00;4.65;;;9.70;99.90;;;;;;4985044;28;20438;-69
2023/03/24 06:56:06;;;;;;;20.10;4.35;;;9.80;99.90;;;;;;4988657;28;20414;-68
2023/03/24 06:58:33;;;;;;;22.98;4.50;;;9.80;99.90;;;;;;4968709;28;20742;-67
2023/03/24 07:01:00;;;;;;;20.90;5.43;;;9.80;99.90;;;;;;4984834;28;20507;-68
2023/03/24 07:03:26;;;;;;;21.33;4.43;;;9.80;99.90;;;;;;4965232;28;20896;-68
2023/03/24 07:05:52;;;;;;;20.65;4.13;;;9.80;99.90;;;;;;4979540;28;20463;-68
2023/03/24 07:08:18;;;;;;;21.67;5.22;;;10.00;99.90;;;;;;4985069;28;20434;-68
2023/03/24 07:10:44;;;;;;;28.60;5.72;;;9.90;99.90;;;;;;4986759;28;20442;-68
2023/03/24 07:13:10;;;;;;;14.65;3.95;;;10.00;99.90;;;;;;4979956;28;20467;-68
2023/03/24 07:15:36;;;;;;;23.88;5.80;;;10.10;99.90;;;;;;4987705;28;20458;-70
2023/03/24 07:18:02;;;;;;;20.33;4.78;;;10.10;99.90;;;;;;4988067;28;20496;-68
2023/03/24 07:20:27;;;;;;;21.98;5.03;;;10.10;99.90;;;;;;4978951;28;20440;-68
2023/03/24 07:22:56;;;;;;;22.80;6.13;;;10.10;99.90;;;;;;4974253;28;20431;-66
2023/03/24 07:25:23;;;;;;;26.10;6.32;;;10.20;99.90;;;;;;4967947;28;20479;-67
2023/03/24 07:27:53;;;;;;;24.73;6.43;;;10.20;99.90;;;;;;4967335;28;20419;-67
2023/03/24 07:30:19;;;;;;;20.13;4.88;;;10.20;99.90;;;;;;4963517;28;20933;-68
2023/03/24 07:32:45;;;;;;;25.27;5.72;;;10.10;99.90;;;;;;4980174;28;20465;-68
2023/03/24 07:35:12;;;;;;;28.38;6.25;;;10.30;99.90;;;;;;4988754;28;20423;-66
2023/03/24 07:37:38;;;;;;;19.65;5.53;;;10.30;99.90;;;;;;4985797;28;20430;-68
2023/03/24 07:40:08;;;;;;;19.02;4.47;;;10.20;99.90;;;;;;4988004;28;20418;-70
2023/03/24 07:42:34;;;;;;;23.40;4.65;;;10.20;99.90;;;;;;4972379;28;20428;-70
2023/03/24 07:45:00;;;;;;;22.73;5.30;;;10.30;99.90;;;;;;4986854;28;20441;-68
2023/03/24 07:47:25;;;;;;;26.97;6.30;;;10.30;99.90;;;;;;4972213;28;20440;-69
2023/03/24 07:49:51;;;;;;;24.37;6.07;;;10.30;99.90;;;;;;4973323;28;20412;-68
2023/03/24 07:52:16;;;;;;;20.67;5.23;;;10.30;99.90;;;;;;4967761;28;20492;-69
2023/03/24 07:54:42;;;;;;;22.20;4.85;;;10.20;99.90;;;;;;4972582;28;20798;-69
2023/03/24 07:57:08;;;;;;;19.27;4.88;;;10.30;99.90;;;;;;4949813;28;20439;-68
2023/03/24 07:59:33;;;;;;;24.33;4.90;;;10.30;99.90;;;;;;4979640;28;20428;-71
2023/03/24 08:02:00;;;;;;;21.60;5.57;;;10.30;99.90;;;;;;4969812;28;20855;-67
2023/03/24 08:04:28;;;;;;;23.23;5.15;;;10.30;99.90;;;;;;4969562;28;20439;-67
2023/03/24 08:06:54;;;;;;;29.43;6.47;;;10.30;99.90;;;;;;4976467;28;20900;-68
2023/03/24 08:09:22;;;;;;;28.63;6.97;;;10.20;99.90;;;;;;4974813;28;20570;-66
2023/03/24 08:11:48;;;;;;;28.05;5.43;;;10.30;99.90;;;;;;4968259;28;20977;-66
2023/03/24 08:14:14;;;;;;;24.53;5.37;;;10.40;99.90;;;;;;4964531;28;20535;-68
2023/03/24 08:16:40;;;;;;;27.23;6.30;;;10.40;99.90;;;;;;4956900;28;20465;-68
2023/03/24 08:19:06;;;;;;;29.60;6.55;;;10.40;99.90;;;;;;4970531;28;20525;-68
2023/03/24 08:21:32;;;;;;;26.30;5.68;;;10.40;99.90;;;;;;4984360;28;20501;-67
2023/03/24 08:23:58;;;;;;;23.83;6.05;;;10.40;99.90;;;;;;4967454;28;20435;-68
2023/03/24 08:26:26;;;;;;;23.65;5.82;;;10.40;99.90;;;;;;4967485;28;20447;-68
2023/03/24 08:28:52;;;;;;;25.85;5.95;;;10.60;99.90;;;;;;4991641;28;20438;-67
2023/03/24 08:31:18;;;;;;;21.23;4.20;;;10.80;99.90;;;;;;4975655;28;20427;-69
2023/03/24 08:33:44;;;;;;;21.55;5.65;;;10.80;99.90;;;;;;4986964;28;20449;-68
2023/03/24 08:36:10;;;;;;;26.88;6.30;;;10.70;99.90;;;;;;4967637;28;20431;-67
2023/03/24 08:38:37;;;;;;;26.80;5.95;;;10.70;99.90;;;;;;4972619;28;20437;-68
2023/03/24 08:41:05;;;;;;;22.35;6.28;;;10.90;99.90;;;;;;4967326;28;20435;-69
2023/03/24 08:43:33;;;;;;;26.05;5.30;;;10.90;99.90;;;;;;4970050;28;20932;-68
2023/03/24 08:46:00;;;;;;;33.03;6.70;;;11.00;99.90;;;;;;4956785;28;20439;-68
2023/03/24 08:48:27;;;;;;;26.95;6.28;;;11.00;99.90;;;;;;4967609;28;20490;-67
2023/03/24 08:50:53;;;;;;;22.02;5.72;;;11.30;99.90;;;;;;4983510;28;20801;-69
2023/03/24 08:53:19;;;;;;;25.70;5.22;;;11.20;99.90;;;;;;4967084;28;21238;-68
2023/03/24 08:55:45;;;;;;;22.92;5.82;;;11.00;99.90;;;;;;4982155;28;20420;-70
2023/03/24 08:58:15;;;;;;;21.58;5.80;;;10.90;99.90;;;;;;4967980;28;20419;-68
2023/03/24 09:00:43;;;;;;;21.75;4.82;;;11.10;99.90;;;;;;4947497;29;20409;-67
2023/03/24 09:03:13;;;;;;;24.67;6.50;;;11.50;99.90;;;;;;4933385;28;20484;-68
2023/03/24 09:05:39;;;;;;;22.73;5.80;;;11.50;99.90;;;;;;4970298;28;20434;-69
2023/03/24 09:08:05;;;;;;;24.15;4.60;;;11.30;99.90;;;;;;4970145;28;20452;-69
2023/03/24 09:10:31;;;;;;;20.92;5.47;;;11.00;99.90;;;;;;4986071;28;20498;-67
2023/03/24 09:12:57;;;;;;;22.27;5.32;;;11.30;99.90;;;;;;4970742;28;20436;-68
2023/03/24 09:15:22;;;;;;;20.33;5.43;;;11.50;99.90;;;;;;4950184;28;20478;-68
2023/03/24 09:17:48;;;;;;;26.73;6.10;;;11.80;99.90;;;;;;4953486;28;20440;-69
2023/03/24 09:20:14;;;;;;;23.77;5.93;;;11.80;99.90;;;;;;4985702;28;20462;-68
2023/03/24 09:22:43;;;;;;;21.33;5.55;;;11.60;99.90;;;;;;4970130;28;20911;-69
2023/03/24 09:25:11;;;;;;;21.80;5.85;;;11.90;99.90;;;;;;4984450;28;20438;-68
2023/03/24 09:27:38;;;;;;;22.90;5.77;;;11.90;99.90;;;;;;4989925;28;20425;-68
2023/03/24 09:30:05;;;;;;;26.60;6.57;;;11.60;99.90;;;;;;4973697;28;20795;-70
2023/03/24 09:32:32;;;;;;;15.68;4.35;;;11.70;99.90;;;;;;4968756;28;20764;-68
2023/03/24 09:34:58;;;;;;;23.77;5.75;;;11.50;99.90;;;;;;4981843;28;20430;-68
2023/03/24 09:37:27;;;;;;;20.08;5.68;;;11.40;99.90;;;;;;4972033;28;20439;-68
2023/03/24 09:39:53;;;;;;;15.03;4.03;;;11.40;99.90;;;;;;4971074;28;20552;-69
2023/03/24 09:42:23;;;;;;;23.30;4.90;;;11.60;99.90;;;;;;4953474;28;20423;-68
2023/03/24 09:44:55;;;;;;;19.23;5.70;;;11.60;99.90;;;;;;4968032;28;20523;-68
2023/03/24 09:47:41;;;;;;;19.00;4.10;;;11.40;99.90;;;;;;4969667;28;20439;-68
2023/03/24 09:50:29;;;;;;;23.80;6.22;;;11.50;99.90;;;;;;4980312;28;20423;-68
2023/03/24 09:53:05;;;;;;;25.20;5.63;;;11.70;99.90;;;;;;4969724;28;20432;-68
2023/03/24 09:55:31;;;;;;;15.77;4.15;;;11.90;99.90;;;;;;4970148;28;20424;-68
2023/03/24 09:58:04;;;;;;;19.80;5.10;;;11.70;99.90;;;;;;4969651;28;20416;-68
2023/03/24 10:00:32;;;;;;;23.27;5.07;;;11.80;99.90;;;;;;4968109;28;20846;-69
2023/03/24 10:03:19;;;;;;;18.63;4.15;;;11.50;99.90;;;;;;4970176;28;20423;-68
2023/03/24 10:05:59;;;;;;;17.33;4.43;;;11.40;99.90;;;;;;4969359;28;20767;-69
2023/03/24 10:08:35;;;;;;;23.10;5.10;;;11.60;99.90;;;;;;4952116;28;21001;-67
2023/03/24 10:11:26;;;;;;;20.27;4.18;;;11.70;99.90;;;;;;4969452;28;20425;-68
2023/03/24 10:14:20;;;;;;;22.13;5.25;;;11.80;99.90;;;;;;4967617;28;20444;-69
2023/03/24 10:17:01;;;;;;;23.00;5.13;;;11.60;99.90;;;;;;4984513;28;20424;-68
2023/03/24 10:19:49;;;;;;;24.23;5.35;;;11.60;99.90;;;;;;4969960;28;20416;-68
2023/03/24 10:22:27;;;;;;;21.88;4.85;;;11.70;99.90;;;;;;4964677;28;20435;-70
2023/03/24 10:25:33;;;;;;;16.70;4.63;;;11.90;99.90;;;;;;4969462;28;20428;-69
2023/03/24 10:28:25;;;;;;;15.10;3.38;;;12.10;99.90;;;;;;4969539;28;20486;-68
2023/03/24 10:30:54;;;;;;;24.08;5.07;;;12.00;99.90;;;;;;4968852;28;20567;-69
2023/03/24 10:33:20;;;;;;;18.42;4.20;;;12.00;99.90;;;;;;4969904;28;20491;-68
2023/03/24 10:36:08;;;;;;;17.30;4.95;;;11.90;99.90;;;;;;4969786;28;21057;-68
2023/03/24 10:38:34;;;;;;;15.27;4.93;;;11.80;99.90;;;;;;4968849;28;20969;-70
2023/03/24 10:41:01;;;;;;;14.70;4.30;;;12.10;99.90;;;;;;4968613;28;20431;-69
2023/03/24 10:43:28;;;;;;;19.10;4.20;;;12.30;99.90;;;;;;4966526;28;20436;-68
2023/03/24 10:45:56;;;;;;;17.27;4.20;;;12.70;99.90;;;;;;4967914;28;20462;-69
2023/03/24 10:48:34;;;;;;;17.52;4.82;;;12.60;99.90;;;;;;4968764;28;20512;-68
2023/03/24 10:50:59;;;;;;;17.83;5.13;;;12.40;99.90;;;;;;4969875;28;20459;-69
2023/03/24 10:53:26;;;;;;;22.23;5.20;;;12.10;99.90;;;;;;4969691;28;20467;-67
2023/03/24 10:55:51;;;;;;;14.13;4.15;;;12.30;99.90;;;;;;4969523;28;20495;-68
2023/03/24 10:58:38;;;;;;;18.13;4.50;;;12.50;99.90;;;;;;4967369;28;20516;-68
2023/03/24 11:01:29;;;;;;;15.13;3.83;;;12.60;99.90;;;;;;4969570;28;20412;-69
2023/03/24 11:04:05;;;;;;;16.33;4.28;;;12.50;99.90;;;;;;4967723;28;20452;-68
2023/03/24 11:06:33;;;;;;;19.77;4.68;;;12.50;99.90;;;;;;4967732;28;20443;-68
2023/03/24 11:09:28;;;;;;;19.67;4.32;;;12.30;99.90;;;;;;4968213;28;20620;-68
2023/03/24 11:11:54;;;;;;;18.83;5.55;;;12.20;99.90;;;;;;4949053;28;20433;-68
2023/03/24 11:14:24;;;;;;;18.00;4.25;;;12.10;99.90;;;;;;4949678;28;20774;-69
2023/03/24 11:16:52;;;;;;;19.92;4.72;;;12.00;99.90;;;;;;4949147;29;20769;-68
2023/03/24 11:19:20;;;;;;;20.35;4.65;;;12.10;99.90;;;;;;4948433;29;20516;-70
2023/03/24 11:21:48;;;;;;;19.77;4.97;;;12.20;99.90;;;;;;4965139;28;20752;-69
2023/03/24 11:24:19;;;;;;;15.93;4.20;;;12.10;99.90;;;;;;4967666;28;20891;-69
2023/03/24 11:26:55;;;;;;;19.77;4.60;;;12.20;99.90;;;;;;4968578;28;20407;-69
2023/03/24 11:29:24;;;;;;;19.20;4.65;;;11.90;99.90;;;;;;4967091;28;20523;-69
2023/03/24 11:31:56;;;;;;;13.88;3.28;;;12.20;99.90;;;;;;4969125;28;20410;-68
2023/03/24 11:34:32;;;;;;;14.73;3.67;;;12.10;99.90;;;;;;4968921;28;20436;-69
2023/03/24 11:37:07;;;;;;;17.20;5.03;;;12.30;99.90;;;;;;4966054;28;20763;-68
2023/03/24 11:39:33;;;;;;;15.50;3.83;;;12.50;99.90;;;;;;4968928;28;20533;-68
2023/03/24 11:42:11;;;;;;;15.07;3.80;;;12.70;99.90;;;;;;4968611;28;20507;-68
2023/03/24 11:44:36;;;;;;;12.75;3.55;;;12.70;99.90;;;;;;4981344;28;20420;-69
2023/03/24 11:47:31;;;;;;;17.20;4.77;;;12.80;99.90;;;;;;4969841;28;20810;-68
2023/03/24 11:50:08;;;;;;;16.90;4.18;;;12.90;99.90;;;;;;4968507;28;20795;-68
2023/03/24 11:52:49;;;;;;;13.60;3.65;;;12.80;99.90;;;;;;4957926;28;20418;-69
2023/03/24 11:55:58;;;;;;;16.25;4.60;;;12.70;99.90;;;;;;4977450;28;20439;-68
2023/03/24 11:58:45;;;;;;;15.45;4.35;;;12.50;99.90;;;;;;4983134;28;20850;-69
2023/03/24 12:01:18;;;;;;;15.32;3.55;;;12.60;99.90;;;;;;4978284;28;20904;-67
2023/03/24 12:03:44;;;;;;;18.25;3.88;;;12.60;99.90;;;;;;4974381;28;20418;-68
2023/03/24 12:06:27;;;;;;;20.30;4.37;;;12.70;99.90;;;;;;4972623;28;20420;-69
2023/03/24 12:09:06;;;;;;;15.07;3.42;;;12.40;99.90;;;;;;4972537;28;20425;-68
2023/03/24 12:11:56;;;;;;;19.63;4.15;;;12.30;99.90;;;;;;4973928;28;20791;-68
2023/03/24 12:14:44;;;;;;;14.25;4.20;;;12.50;99.90;;;;;;4937444;28;20797;-69
2023/03/24 12:17:16;;;;;;;16.83;4.65;;;12.50;99.90;;;;;;4977456;28;20802;-68
2023/03/24 12:19:54;;;;;;;18.73;4.50;;;12.50;99.90;;;;;;4982428;28;20422;-67
2023/03/24 12:22:32;;;;;;;17.35;4.25;;;12.70;99.90;;;;;;4970335;28;21237;-68
2023/03/24 12:25:10;;;;;;;17.17;4.63;;;12.90;99.90;;;;;;4976858;28;20471;-68
2023/03/24 12:28:08;;;;;;;16.77;4.03;;;13.00;99.90;;;;;;4964445;28;21136;-67
2023/03/24 12:31:03;;;;;;;18.55;4.50;;;12.90;99.90;;;;;;4958930;28;20916;-67
2023/03/24 12:33:43;;;;;;;16.97;3.90;;;12.90;99.90;;;;;;4969948;28;20586;-68
2023/03/24 12:36:44;;;;;;;17.58;4.57;;;12.90;99.90;;;;;;4972476;28;20442;-69
2023/03/24 12:39:12;;;;;;;18.98;4.57;;;13.10;99.90;;;;;;4965514;28;20443;-69
2023/03/24 12:42:12;;;;;;;17.17;4.00;;;13.10;99.90;;;;;;4984222;28;20520;-68
2023/03/24 12:45:05;;;;;;;17.08;3.47;;;12.50;99.90;;;;;;4961360;28;20422;-69
2023/03/24 12:47:52;;;;;;;17.25;4.05;;;12.40;99.90;;;;;;4959279;28;20518;-68
2023/03/24 12:50:34;;;;;;;16.77;4.13;;;12.50;99.90;;;;;;4981671;28;20441;-68
2023/03/24 12:53:15;;;;;;;19.52;4.55;;;12.50;99.90;;;;;;4973030;28;20494;-70
2023/03/24 12:55:49;;;;;;;16.60;3.83;;;12.80;99.90;;;;;;4983004;28;20973;-69
2023/03/24 12:58:37;;;;;;;17.95;4.78;;;12.90;99.90;;;;;;4985433;28;20445;-69
2023/03/24 13:01:06;;;;;;;21.52;4.35;;;13.10;99.90;;;;;;4977331;28;20441;-68
2023/03/24 13:03:41;;;;;;;14.18;3.38;;;13.10;99.90;;;;;;4971039;28;20894;-69
2023/03/24 13:06:21;;;;;;;14.60;4.38;;;13.30;99.90;;;;;;4986491;28;20426;-68
2023/03/24 13:09:18;;;;;;;14.88;3.17;;;13.50;99.90;;;;;;4970670;28;20427;-69